createdAt,value
2023-05-12T00:03:08.769Z,99.90
2023-05-12T00:07:31.016Z,99.90
2023-05-12T00:11:53.336Z,99.90
2023-05-12T00:16:17.727Z,99.90
2023-05-12T00:20:39.573Z,99.90
2023-05-12T00:25:01.464Z,99.90
2023-05-12T00:29:23.654Z,99.90
2023-05-12T00:33:45.992Z,99.90
2023-05-12T00:38:07.940Z,99.90
2023-05-12T00:42:29.922Z,99.90
2023-05-12T00:46:53.510Z,99.90
2023-05-12T00:51:17.395Z,99.90
2023-05-12T00:55:39.366Z,99.90
2023-05-12T01:00:01.441Z,99.90
2023-05-12T01:04:24.170Z,99.90
2023-05-12T01:08:47.634Z,99.90
2023-05-12T01:13:10.735Z,99.90
2023-05-12T01:17:34.342Z,99.90
2023-05-12T01:21:56.777Z,99.90
2023-05-12T01:26:19.185Z,99.90
2023-05-12T01:30:42.148Z,99.90
2023-05-12T01:35:06.510Z,99.90
2023-05-12T01:39:30.405Z,99.90
2023-05-12T01:43:53.383Z,99.90
2023-05-12T01:48:15.756Z,99.90
2023-05-12T01:52:38.233Z,99.90
2023-05-12T01:57:05.216Z,99.90
2023-05-12T02:01:29.176Z,99.90
2023-05-12T02:05:52.301Z,99.90
2023-05-12T02:10:14.502Z,99.90
2023-05-12T02:14:36.672Z,99.90
2023-05-12T02:18:58.809Z,99.90
2023-05-12T02:23:21.079Z,99.90
2023-05-12T02:27:45.196Z,99.90
2023-05-12T02:32:08.109Z,99.90
2023-05-12T02:36:30.099Z,99.90
2023-05-12T02:40:52.165Z,99.90
2023-05-12T02:45:15.114Z,99.90
2023-05-12T02:49:37.554Z,99.90
2023-05-12T02:53:59.878Z,99.90
2023-05-12T02:58:22.881Z,99.90
2023-05-12T03:02:45.356Z,99.90
2023-05-12T03:07:09.163Z,99.90
2023-05-12T03:11:31.417Z,99.90
2023-05-12T03:15:53.829Z,99.90
2023-05-12T03:20:16.078Z,99.90
2023-05-12T03:24:38.640Z,99.90
2023-05-12T03:29:00.743Z,99.90
2023-05-12T03:33:22.658Z,99.90
2023-05-12T03:37:45.781Z,99.90
2023-05-12T03:42:07.953Z,99.90
2023-05-12T03:46:29.898Z,99.90
2023-05-12T03:50:51.817Z,99.90
2023-05-12T03:55:14.482Z,99.90
2023-05-12T03:59:38.242Z,99.90
2023-05-12T04:04:00.254Z,99.90
2023-05-12T04:08:22.545Z,99.90
2023-05-12T04:12:44.576Z,99.90
2023-05-12T04:17:06.736Z,99.90
2023-05-12T04:21:29.207Z,99.90
2023-05-12T04:25:51.341Z,99.90
2023-05-12T04:30:13.729Z,99.90
2023-05-12T04:34:38.639Z,99.90
2023-05-12T04:39:00.937Z,99.90
2023-05-12T04:47:48.737Z,99.90
2023-05-12T04:52:10.889Z,99.90
2023-05-12T04:56:32.937Z,99.90
2023-05-12T05:00:55.363Z,99.90
2023-05-12T05:05:17.886Z,99.90
2023-05-12T05:09:40.826Z,99.90
2023-05-12T05:14:03.163Z,99.90
2023-05-12T05:18:25.540Z,99.90
2023-05-12T05:22:49.596Z,99.90
2023-05-12T05:27:14.106Z,99.90
2023-05-12T05:31:36.595Z,99.90
2023-05-12T05:35:59.071Z,99.90
2023-05-12T05:40:22.417Z,99.90
2023-05-12T05:44:44.661Z,99.90
2023-05-12T05:49:06.779Z,99.90
2023-05-12T05:53:29.234Z,99.90
2023-05-12T05:57:51.098Z,99.90
2023-05-12T06:02:14.386Z,99.90
2023-05-12T06:06:38.007Z,99.90
2023-05-12T06:11:01.173Z,99.90
2023-05-12T06:15:23.281Z,99.90
2023-05-12T06:19:47.973Z,99.90
2023-05-12T06:24:10.234Z,99.90
2023-05-12T06:28:32.321Z,99.90
2023-05-12T06:32:54.510Z,99.90
2023-05-12T06:37:17.452Z,99.90
2023-05-12T06:41:40.044Z,99.90
2023-05-12T06:46:02.218Z,99.90
2023-05-12T06:50:24.450Z,99.90
2023-05-12T06:54:47.316Z,99.90
2023-05-12T06:59:09.746Z,99.90
2023-05-12T07:03:33.750Z,99.90
2023-05-12T07:07:55.673Z,99.90
2023-05-12T07:12:17.738Z,99.90
2023-05-12T07:16:39.998Z,99.90
2023-05-12T07:21:02.572Z,99.90
2023-05-12T07:25:24.889Z,99.90
2023-05-12T07:29:47.231Z,99.90
2023-05-12T07:34:09.655Z,99.90
2023-05-12T07:38:32.452Z,99.90
2023-05-12T07:42:54.994Z,99.90
2023-05-12T07:47:17.417Z,99.90
2023-05-12T07:51:39.723Z,96.70
2023-05-12T07:56:02.104Z,92.90
2023-05-12T08:00:24.238Z,89.80
2023-05-12T08:04:46.337Z,83.10
2023-05-12T08:09:08.625Z,85.00
2023-05-12T08:13:30.596Z,82.70
2023-05-12T08:17:52.927Z,78.00
2023-05-12T08:22:15.436Z,75.10
2023-05-12T08:26:37.186Z,68.30
2023-05-12T08:31:00.470Z,69.80
2023-05-12T08:35:26.767Z,70.20
2023-05-12T08:39:48.684Z,65.30
2023-05-12T08:44:13.160Z,61.20
2023-05-12T08:48:37.984Z,58.40
2023-05-12T08:53:02.456Z,61.70
2023-05-12T08:57:26.393Z,66.80
2023-05-12T09:01:51.153Z,69.10
2023-05-12T09:06:14.654Z,67.60
2023-05-12T09:10:37.024Z,68.30
2023-05-12T09:15:10.383Z,66.30
2023-05-12T09:19:32.893Z,69.50
2023-05-12T09:24:06.423Z,70.40
2023-05-12T09:28:39.008Z,68.70
2023-05-12T09:33:14.517Z,64.80
2023-05-12T09:37:37.055Z,65.50
2023-05-12T09:41:59.877Z,59.50
2023-05-12T09:46:22.242Z,56.90
2023-05-12T09:50:51.346Z,52.30
2023-05-12T09:55:14.756Z,50.10
2023-05-12T09:59:39.701Z,53.20
2023-05-12T10:04:05.448Z,56.20
2023-05-12T10:08:41.184Z,62.00
2023-05-12T10:13:04.793Z,63.90
2023-05-12T10:17:28.276Z,59.60
2023-05-12T10:21:50.949Z,55.40
2023-05-12T10:26:14.018Z,54.90
2023-05-12T10:30:37.728Z,57.30
2023-05-12T10:35:11.558Z,55.70
2023-05-12T10:39:34.574Z,54.00
2023-05-12T10:43:56.927Z,56.00
2023-05-12T10:48:18.779Z,56.30
2023-05-12T10:53:01.216Z,56.70
2023-05-12T10:57:24.195Z,56.60
2023-05-12T11:02:07.049Z,56.50
2023-05-12T11:06:31.267Z,56.90
2023-05-12T11:10:54.605Z,58.10
2023-05-12T11:15:18.123Z,58.70
2023-05-12T11:19:48.546Z,57.70
2023-05-12T11:24:14.439Z,58.30
2023-05-12T11:28:42.806Z,59.20
2023-05-12T11:33:04.754Z,59.10
2023-05-12T11:37:26.715Z,59.70
2023-05-12T11:41:54.601Z,59.60
2023-05-12T11:46:29.254Z,60.00
2023-05-12T11:50:51.536Z,59.40
2023-05-12T11:55:19.726Z,60.70
2023-05-12T11:59:48.028Z,61.00
2023-05-12T12:04:10.622Z,60.70
2023-05-12T12:08:32.780Z,59.80
2023-05-12T12:12:54.858Z,58.20
2023-05-12T12:17:16.719Z,56.70
2023-05-12T12:21:38.820Z,57.10
2023-05-12T12:26:00.712Z,57.10
2023-05-12T12:30:22.578Z,56.90
2023-05-12T12:34:46.496Z,56.40
2023-05-12T12:39:08.798Z,56.90
2023-05-12T12:43:30.757Z,58.40
2023-05-12T12:47:55.083Z,59.10
2023-05-12T12:52:17.684Z,59.50
2023-05-12T12:56:39.727Z,60.30
2023-05-12T13:01:02.460Z,60.30
2023-05-12T13:05:24.993Z,59.10
2023-05-12T13:09:46.946Z,57.90
2023-05-12T13:14:09.203Z,59.40
2023-05-12T13:18:31.325Z,58.60
2023-05-12T13:22:53.456Z,59.80
2023-05-12T13:27:15.860Z,59.20
2023-05-12T13:31:38.867Z,60.00
2023-05-12T13:36:01.564Z,59.40
2023-05-12T13:40:24.024Z,60.00
2023-05-12T13:44:46.116Z,61.50
2023-05-12T13:49:08.181Z,61.20
2023-05-12T13:53:30.094Z,62.00
2023-05-12T13:57:52.674Z,61.00
2023-05-12T14:02:14.633Z,60.10
2023-05-12T14:06:36.972Z,59.40
2023-05-12T14:10:58.993Z,59.90
2023-05-12T14:15:29.496Z,61.80
2023-05-12T14:19:58.454Z,64.10
2023-05-12T14:24:20.675Z,63.50
2023-05-12T14:28:42.726Z,65.40
2023-05-12T14:33:05.050Z,64.50
2023-05-12T14:37:26.936Z,64.50
2023-05-12T14:41:49.083Z,63.80
2023-05-12T14:46:11.551Z,61.10
2023-05-12T14:50:33.818Z,60.40
2023-05-12T14:54:55.730Z,59.40
2023-05-12T14:59:17.785Z,60.10
2023-05-12T15:03:39.758Z,59.80
2023-05-12T15:08:01.798Z,59.90
2023-05-12T15:12:23.838Z,65.10
2023-05-12T15:16:45.741Z,68.90
2023-05-12T15:21:07.938Z,73.70
2023-05-12T15:25:30.129Z,77.20
2023-05-12T15:29:53.845Z,80.60
2023-05-12T15:34:16.159Z,80.70
2023-05-12T15:38:38.671Z,80.80
2023-05-12T15:43:00.621Z,80.60
2023-05-12T15:47:22.724Z,80.50
2023-05-12T15:51:44.997Z,80.70
2023-05-12T15:56:07.470Z,78.90
2023-05-12T16:00:29.400Z,80.20
2023-05-12T16:04:51.510Z,80.40
2023-05-12T16:09:13.904Z,80.10
2023-05-12T16:13:36.057Z,80.00
2023-05-12T16:17:58.070Z,78.80
2023-05-12T16:22:20.020Z,80.20
2023-05-12T16:26:42.430Z,81.20
2023-05-12T16:31:05.026Z,83.00
2023-05-12T16:35:27.092Z,82.20
2023-05-12T16:39:50.342Z,81.30
2023-05-12T16:44:12.434Z,82.50
2023-05-12T16:48:34.931Z,83.70
2023-05-12T16:52:57.197Z,86.10
2023-05-12T16:57:19.356Z,85.10
2023-05-12T17:01:41.419Z,86.50
2023-05-12T17:06:04.294Z,89.70
2023-05-12T17:10:26.525Z,91.20
2023-05-12T17:14:59.424Z,92.00
2023-05-12T17:19:26.822Z,92.40
2023-05-12T17:23:48.955Z,93.10
2023-05-12T17:28:11.262Z,93.50
2023-05-12T17:32:33.707Z,93.80
2023-05-12T17:36:55.442Z,93.90
2023-05-12T17:41:18.374Z,94.30
2023-05-12T17:45:40.197Z,94.80
2023-05-12T17:50:02.675Z,95.10
2023-05-12T17:54:24.919Z,95.10
2023-05-12T17:58:47.320Z,94.70
2023-05-12T18:03:09.334Z,97.80
2023-05-12T18:07:32.160Z,98.00
2023-05-12T18:11:54.097Z,99.90
2023-05-12T18:16:27.999Z,99.90
2023-05-12T18:20:51.366Z,99.90
2023-05-12T18:25:14.298Z,99.90
2023-05-12T18:29:36.367Z,99.90
2023-05-12T18:33:58.461Z,99.90
2023-05-12T18:38:20.801Z,99.90
2023-05-12T18:42:42.862Z,99.90
2023-05-12T18:47:05.175Z,99.90
2023-05-12T18:51:27.975Z,99.90
2023-05-12T18:55:50.493Z,99.90
2023-05-12T19:00:13.033Z,99.90
2023-05-12T19:04:35.301Z,99.90
2023-05-12T19:08:57.516Z,99.90
2023-05-12T19:13:19.875Z,99.90
2023-05-12T19:17:42.215Z,99.90
2023-05-12T19:22:04.914Z,99.90
2023-05-12T19:26:28.658Z,99.90
2023-05-12T19:30:51.013Z,99.90
2023-05-12T19:35:16.310Z,99.90
2023-05-12T19:39:38.934Z,99.90
2023-05-12T19:44:01.104Z,99.90
2023-05-12T19:48:23.009Z,99.90
2023-05-12T19:52:45.251Z,99.90
2023-05-12T19:57:07.743Z,99.90
2023-05-12T20:01:30.945Z,99.90
2023-05-12T20:05:53.155Z,99.90
2023-05-12T20:10:15.583Z,99.90
2023-05-12T20:14:38.576Z,99.90
2023-05-12T20:19:02.826Z,99.90
2023-05-12T20:23:27.449Z,99.90
2023-05-12T20:27:49.378Z,99.90
2023-05-12T20:32:14.221Z,99.90
2023-05-12T20:36:36.537Z,99.90
2023-05-12T20:41:05.516Z,99.90
2023-05-12T20:45:27.457Z,99.90
2023-05-12T20:49:49.314Z,99.90
2023-05-12T20:54:11.208Z,99.90
2023-05-12T20:58:33.796Z,99.90
2023-05-12T21:02:56.352Z,99.90
2023-05-12T21:07:20.943Z,99.90
2023-05-12T21:11:43.356Z,99.90
2023-05-12T21:16:05.646Z,99.90
2023-05-12T21:20:27.915Z,99.90
2023-05-12T21:24:51.594Z,99.90
2023-05-12T21:29:13.781Z,99.90
2023-05-12T21:33:35.652Z,99.90
2023-05-12T21:37:57.790Z,99.90
2023-05-12T21:42:20.124Z,99.90
2023-05-12T21:46:42.732Z,99.90
2023-05-12T21:51:05.553Z,99.90
2023-05-12T21:55:27.738Z,99.90
2023-05-12T21:59:49.855Z,99.90
2023-05-12T22:04:11.918Z,99.90
2023-05-12T22:08:34.658Z,99.90
2023-05-12T22:12:56.828Z,99.90
2023-05-12T22:17:18.613Z,99.90
2023-05-12T22:21:41.171Z,99.90
2023-05-12T22:26:03.178Z,99.90
2023-05-12T22:30:25.418Z,99.90
2023-05-12T22:34:47.579Z,99.90
2023-05-12T22:39:09.721Z,99.90
2023-05-12T22:43:31.822Z,99.90
2023-05-12T22:47:54.408Z,99.90
2023-05-12T22:52:16.898Z,99.90
2023-05-12T22:56:38.698Z,99.90
2023-05-12T23:01:03.942Z,99.90
2023-05-12T23:05:25.976Z,99.90
2023-05-12T23:09:47.958Z,99.90
2023-05-12T23:14:11.544Z,99.90
2023-05-12T23:18:33.495Z,99.90
2023-05-12T23:22:55.782Z,99.90
2023-05-12T23:27:17.617Z,99.90
2023-05-12T23:31:39.934Z,99.90
2023-05-12T23:36:02.316Z,99.90
2023-05-12T23:40:24.258Z,99.90
2023-05-12T23:44:46.276Z,99.90
2023-05-12T23:49:08.374Z,99.90
2023-05-12T23:53:30.620Z,99.90
2023-05-12T23:57:53.558Z,99.90
